sensor_id;sensor_type;location;lat;lon;timestamp;P1;durP1;ratioP1;P2;durP2;ratioP2
27424;SDS011;15244;49.088;11.886;2023-05-01T00:04:09;5.53;;;3.60;;
27424;SDS011;15244;49.088;11.886;2023-05-01T00:09:11;4.53;;;3.47;;
27424;SDS011;15244;49.088;11.886;2023-05-01T00:14:21;3.83;;;3.53;;
27424;SDS011;15244;49.088;11.886;2023-05-01T00:19:26;4.10;;;3.47;;
27424;SDS011;15244;49.088;11.886;2023-05-01T00:24:27;4.05;;;3.75;;
27424;SDS011;15244;49.088;11.886;2023-05-01T00:29:29;3.88;;;3.53;;
27424;SDS011;15244;49.088;11.886;2023-05-01T00:34:30;4.65;;;4.25;;
27424;SDS011;15244;49.088;11.886;2023-05-01T00:39:32;4.93;;;3.90;;
27424;SDS011;15244;49.088;11.886;2023-05-01T00:44:34;4.05;;;3.75;;
27424;SDS011;15244;49.088;11.886;2023-05-01T00:49:36;4.32;;;4.00;;
27424;SDS011;15244;49.088;11.886;2023-05-01T00:54:42;4.43;;;4.05;;
27424;SDS011;15244;49.088;11.886;2023-05-01T00:59:50;5.10;;;4.70;;
27424;SDS011;15244;49.088;11.886;2023-05-01T01:04:56;5.88;;;5.20;;
27424;SDS011;15244;49.088;11.886;2023-05-01T01:10:01;4.50;;;3.75;;
27424;SDS011;15244;49.088;11.886;2023-05-01T01:15:17;5.85;;;5.10;;
27424;SDS011;15244;49.088;11.886;2023-05-01T01:20:35;5.13;;;4.47;;
27424;SDS011;15244;49.088;11.886;2023-05-01T01:31:08;6.03;;;5.35;;
27424;SDS011;15244;49.088;11.886;2023-05-01T01:36:25;7.38;;;5.45;;
27424;SDS011;15244;49.088;11.886;2023-05-01T01:41:35;6.07;;;5.53;;
27424;SDS011;15244;49.088;11.886;2023-05-01T01:46:39;5.90;;;5.47;;
27424;SDS011;15244;49.088;11.886;2023-05-01T01:51:43;7.25;;;5.93;;
27424;SDS011;15244;49.088;11.886;2023-05-01T01:56:47;7.20;;;5.50;;
27424;SDS011;15244;49.088;11.886;2023-05-01T02:01:52;6.45;;;5.85;;
27424;SDS011;15244;49.088;11.886;2023-05-01T02:06:55;6.22;;;5.63;;
27424;SDS011;15244;49.088;11.886;2023-05-01T02:11:58;5.95;;;5.45;;
27424;SDS011;15244;49.088;11.886;2023-05-01T02:17:06;6.35;;;5.65;;
27424;SDS011;15244;49.088;11.886;2023-05-01T02:27:22;6.63;;;6.10;;
27424;SDS011;15244;49.088;11.886;2023-05-01T02:32:31;7.68;;;6.60;;
27424;SDS011;15244;49.088;11.886;2023-05-01T02:37:33;8.63;;;6.45;;
27424;SDS011;15244;49.088;11.886;2023-05-01T02:42:36;8.60;;;7.03;;
27424;SDS011;15244;49.088;11.886;2023-05-01T02:47:39;8.10;;;6.88;;
27424;SDS011;15244;49.088;11.886;2023-05-01T02:52:43;8.38;;;7.40;;
27424;SDS011;15244;49.088;11.886;2023-05-01T02:58:02;7.85;;;6.90;;
27424;SDS011;15244;49.088;11.886;2023-05-01T03:03:04;8.50;;;7.57;;
27424;SDS011;15244;49.088;11.886;2023-05-01T03:08:08;12.30;;;7.82;;
27424;SDS011;15244;49.088;11.886;2023-05-01T03:13:12;9.70;;;7.65;;
27424;SDS011;15244;49.088;11.886;2023-05-01T03:18:13;8.32;;;7.07;;
27424;SDS011;15244;49.088;11.886;2023-05-01T03:23:15;8.20;;;7.40;;
27424;SDS011;15244;49.088;11.886;2023-05-01T03:28:17;9.05;;;7.10;;
27424;SDS011;15244;49.088;11.886;2023-05-01T03:33:19;8.23;;;7.43;;
27424;SDS011;15244;49.088;11.886;2023-05-01T03:38:21;9.43;;;8.43;;
27424;SDS011;15244;49.088;11.886;2023-05-01T03:43:43;9.32;;;8.27;;
27424;SDS011;15244;49.088;11.886;2023-05-01T03:49:01;11.85;;;8.27;;
27424;SDS011;15244;49.088;11.886;2023-05-01T03:54:07;8.45;;;7.63;;
27424;SDS011;15244;49.088;11.886;2023-05-01T03:59:26;9.23;;;7.35;;
27424;SDS011;15244;49.088;11.886;2023-05-01T04:04:27;12.45;;;7.63;;
27424;SDS011;15244;49.088;11.886;2023-05-01T04:09:31;9.18;;;8.00;;
27424;SDS011;15244;49.088;11.886;2023-05-01T04:14:33;8.70;;;7.75;;
27424;SDS011;15244;49.088;11.886;2023-05-01T04:19:38;9.45;;;8.23;;
27424;SDS011;15244;49.088;11.886;2023-05-01T04:24:41;8.25;;;7.45;;
27424;SDS011;15244;49.088;11.886;2023-05-01T04:29:43;10.55;;;7.50;;
27424;SDS011;15244;49.088;11.886;2023-05-01T04:34:45;8.43;;;7.63;;
27424;SDS011;15244;49.088;11.886;2023-05-01T04:39:47;10.98;;;7.60;;
27424;SDS011;15244;49.088;11.886;2023-05-01T04:44:50;9.57;;;8.57;;
27424;SDS011;15244;49.088;11.886;2023-05-01T04:49:56;8.88;;;8.02;;
27424;SDS011;15244;49.088;11.886;2023-05-01T04:55:06;9.57;;;8.20;;
27424;SDS011;15244;49.088;11.886;2023-05-01T05:00:30;11.48;;;8.40;;
27424;SDS011;15244;49.088;11.886;2023-05-01T05:05:32;11.88;;;9.07;;
27424;SDS011;15244;49.088;11.886;2023-05-01T05:10:37;10.75;;;8.77;;
27424;SDS011;15244;49.088;11.886;2023-05-01T05:15:51;12.05;;;9.52;;
27424;SDS011;15244;49.088;11.886;2023-05-01T05:20:55;11.35;;;8.38;;
27424;SDS011;15244;49.088;11.886;2023-05-01T05:25:59;12.00;;;9.52;;
27424;SDS011;15244;49.088;11.886;2023-05-01T05:31:05;15.65;;;9.88;;
27424;SDS011;15244;49.088;11.886;2023-05-01T05:36:11;12.07;;;9.48;;
27424;SDS011;15244;49.088;11.886;2023-05-01T05:41:17;11.88;;;9.80;;
27424;SDS011;15244;49.088;11.886;2023-05-01T05:46:21;11.52;;;9.48;;
27424;SDS011;15244;49.088;11.886;2023-05-01T05:51:25;14.48;;;10.60;;
27424;SDS011;15244;49.088;11.886;2023-05-01T05:56:27;14.05;;;10.98;;
27424;SDS011;15244;49.088;11.886;2023-05-01T06:01:28;13.30;;;10.30;;
27424;SDS011;15244;49.088;11.886;2023-05-01T06:06:32;13.20;;;10.50;;
27424;SDS011;15244;49.088;11.886;2023-05-01T06:11:40;14.00;;;11.15;;
27424;SDS011;15244;49.088;11.886;2023-05-01T06:16:45;13.15;;;10.80;;
27424;SDS011;15244;49.088;11.886;2023-05-01T06:21:47;15.30;;;10.30;;
27424;SDS011;15244;49.088;11.886;2023-05-01T06:26:50;11.93;;;10.27;;
27424;SDS011;15244;49.088;11.886;2023-05-01T06:31:55;12.75;;;10.07;;
27424;SDS011;15244;49.088;11.886;2023-05-01T06:36:57;12.75;;;10.93;;
27424;SDS011;15244;49.088;11.886;2023-05-01T06:41:58;10.80;;;9.63;;
27424;SDS011;15244;49.088;11.886;2023-05-01T06:47:13;10.55;;;9.45;;
27424;SDS011;15244;49.088;11.886;2023-05-01T06:52:17;13.10;;;10.25;;
27424;SDS011;15244;49.088;11.886;2023-05-01T06:57:22;12.98;;;9.90;;
27424;SDS011;15244;49.088;11.886;2023-05-01T07:02:24;13.80;;;10.07;;
27424;SDS011;15244;49.088;11.886;2023-05-01T07:07:29;10.93;;;9.77;;
27424;SDS011;15244;49.088;11.886;2023-05-01T07:12:32;9.85;;;8.85;;
27424;SDS011;15244;49.088;11.886;2023-05-01T07:17:34;10.68;;;9.15;;
27424;SDS011;15244;49.088;11.886;2023-05-01T07:22:36;10.02;;;8.48;;
27424;SDS011;15244;49.088;11.886;2023-05-01T07:27:39;9.82;;;8.93;;
27424;SDS011;15244;49.088;11.886;2023-05-01T07:32:43;12.77;;;9.15;;
27424;SDS011;15244;49.088;11.886;2023-05-01T07:37:50;10.70;;;9.35;;
27424;SDS011;15244;49.088;11.886;2023-05-01T07:42:52;11.90;;;9.30;;
27424;SDS011;15244;49.088;11.886;2023-05-01T07:47:56;10.38;;;9.10;;
27424;SDS011;15244;49.088;11.886;2023-05-01T07:52:59;10.73;;;8.38;;
27424;SDS011;15244;49.088;11.886;2023-05-01T07:58:06;10.90;;;8.38;;
27424;SDS011;15244;49.088;11.886;2023-05-01T08:03:08;11.30;;;8.23;;
27424;SDS011;15244;49.088;11.886;2023-05-01T08:08:16;7.55;;;6.75;;
27424;SDS011;15244;49.088;11.886;2023-05-01T08:13:24;7.53;;;6.82;;
27424;SDS011;15244;49.088;11.886;2023-05-01T08:18:31;6.90;;;6.30;;
27424;SDS011;15244;49.088;11.886;2023-05-01T08:23:36;7.00;;;6.30;;
27424;SDS011;15244;49.088;11.886;2023-05-01T08:28:46;7.07;;;6.40;;
27424;SDS011;15244;49.088;11.886;2023-05-01T08:33:52;6.25;;;5.65;;
27424;SDS011;15244;49.088;11.886;2023-05-01T08:39:00;5.32;;;4.65;;
27424;SDS011;15244;49.088;11.886;2023-05-01T08:44:06;3.92;;;3.13;;
27424;SDS011;15244;49.088;11.886;2023-05-01T08:49:16;3.67;;;3.35;;
27424;SDS011;15244;49.088;11.886;2023-05-01T08:54:22;3.58;;;3.22;;
27424;SDS011;15244;49.088;11.886;2023-05-01T09:04:39;3.72;;;3.47;;
27424;SDS011;15244;49.088;11.886;2023-05-01T09:09:48;3.78;;;3.42;;
27424;SDS011;15244;49.088;11.886;2023-05-01T09:14:54;3.92;;;3.53;;
27424;SDS011;15244;49.088;11.886;2023-05-01T09:20:04;3.75;;;3.45;;
27424;SDS011;15244;49.088;11.886;2023-05-01T09:25:11;3.92;;;3.63;;
27424;SDS011;15244;49.088;11.886;2023-05-01T09:30:34;3.78;;;3.42;;
27424;SDS011;15244;49.088;11.886;2023-05-01T09:35:49;3.83;;;3.50;;
27424;SDS011;15244;49.088;11.886;2023-05-01T09:41:02;3.30;;;3.10;;
27424;SDS011;15244;49.088;11.886;2023-05-01T09:46:08;3.88;;;3.55;;
27424;SDS011;15244;49.088;11.886;2023-05-01T09:51:19;5.13;;;3.80;;
27424;SDS011;15244;49.088;11.886;2023-05-01T09:56:33;3.65;;;3.35;;
27424;SDS011;15244;49.088;11.886;2023-05-01T10:01:51;3.03;;;2.83;;
27424;SDS011;15244;49.088;11.886;2023-05-01T10:07:13;3.23;;;2.93;;
27424;SDS011;15244;49.088;11.886;2023-05-01T10:17:33;3.00;;;2.70;;
27424;SDS011;15244;49.088;11.886;2023-05-01T10:22:39;3.30;;;2.90;;
27424;SDS011;15244;49.088;11.886;2023-05-01T10:27:48;3.53;;;3.22;;
27424;SDS011;15244;49.088;11.886;2023-05-01T10:32:54;3.53;;;3.30;;
27424;SDS011;15244;49.088;11.886;2023-05-01T10:38:07;4.22;;;3.33;;
27424;SDS011;15244;49.088;11.886;2023-05-01T10:43:19;4.65;;;3.15;;
27424;SDS011;15244;49.088;11.886;2023-05-01T10:53:41;3.10;;;2.90;;
27424;SDS011;15244;49.088;11.886;2023-05-01T10:58:53;3.25;;;3.05;;
27424;SDS011;15244;49.088;11.886;2023-05-01T11:03:57;4.65;;;3.10;;
27424;SDS011;15244;49.088;11.886;2023-05-01T11:20:05;3.10;;;2.90;;
27424;SDS011;15244;49.088;11.886;2023-05-01T11:30:37;3.30;;;3.00;;
27424;SDS011;15244;49.088;11.886;2023-05-01T11:35:43;3.22;;;3.03;;
27424;SDS011;15244;49.088;11.886;2023-05-01T11:40:51;4.15;;;3.10;;
27424;SDS011;15244;49.088;11.886;2023-05-01T11:45:55;4.30;;;2.78;;
27424;SDS011;15244;49.088;11.886;2023-05-01T11:51:12;2.78;;;2.63;;
27424;SDS011;15244;49.088;11.886;2023-05-01T11:56:20;3.03;;;2.83;;
27424;SDS011;15244;49.088;11.886;2023-05-01T12:01:34;3.65;;;2.90;;
27424;SDS011;15244;49.088;11.886;2023-05-01T12:06:39;2.92;;;2.72;;
27424;SDS011;15244;49.088;11.886;2023-05-01T12:11:50;2.85;;;2.58;;
27424;SDS011;15244;49.088;11.886;2023-05-01T12:16:53;2.30;;;2.20;;
27424;SDS011;15244;49.088;11.886;2023-05-01T12:22:05;2.72;;;2.53;;
27424;SDS011;15244;49.088;11.886;2023-05-01T12:27:11;2.40;;;2.20;;
27424;SDS011;15244;49.088;11.886;2023-05-01T12:32:18;2.30;;;2.20;;
27424;SDS011;15244;49.088;11.886;2023-05-01T12:37:28;2.95;;;2.30;;
27424;SDS011;15244;49.088;11.886;2023-05-01T12:42:34;2.75;;;2.42;;
27424;SDS011;15244;49.088;11.886;2023-05-01T12:47:42;2.67;;;2.47;;
27424;SDS011;15244;49.088;11.886;2023-05-01T12:52:48;2.93;;;2.70;;
27424;SDS011;15244;49.088;11.886;2023-05-01T12:57:52;2.90;;;2.70;;
27424;SDS011;15244;49.088;11.886;2023-05-01T13:08:09;4.38;;;2.53;;
27424;SDS011;15244;49.088;11.886;2023-05-01T13:13:21;3.60;;;3.40;;
27424;SDS011;15244;49.088;11.886;2023-05-01T13:18:24;4.05;;;3.78;;
27424;SDS011;15244;49.088;11.886;2023-05-01T13:23:26;3.38;;;3.17;;
27424;SDS011;15244;49.088;11.886;2023-05-01T13:28:28;3.65;;;3.45;;
27424;SDS011;15244;49.088;11.886;2023-05-01T13:33:29;4.18;;;3.97;;
27424;SDS011;15244;49.088;11.886;2023-05-01T13:38:33;4.55;;;4.25;;
27424;SDS011;15244;49.088;11.886;2023-05-01T13:43:43;6.43;;;4.70;;
27424;SDS011;15244;49.088;11.886;2023-05-01T13:48:45;4.50;;;4.18;;
27424;SDS011;15244;49.088;11.886;2023-05-01T13:53:47;4.85;;;4.55;;
27424;SDS011;15244;49.088;11.886;2023-05-01T13:58:48;5.13;;;4.72;;
27424;SDS011;15244;49.088;11.886;2023-05-01T14:03:52;5.38;;;4.97;;
27424;SDS011;15244;49.088;11.886;2023-05-01T14:08:58;5.35;;;4.97;;
27424;SDS011;15244;49.088;11.886;2023-05-01T14:14:04;5.45;;;5.05;;
27424;SDS011;15244;49.088;11.886;2023-05-01T14:19:06;5.45;;;5.05;;
27424;SDS011;15244;49.088;11.886;2023-05-01T14:24:09;6.10;;;5.50;;
27424;SDS011;15244;49.088;11.886;2023-05-01T14:29:12;6.15;;;5.65;;
27424;SDS011;15244;49.088;11.886;2023-05-01T14:34:21;5.75;;;4.97;;
27424;SDS011;15244;49.088;11.886;2023-05-01T14:39:24;6.43;;;5.53;;
27424;SDS011;15244;49.088;11.886;2023-05-01T14:44:27;4.93;;;4.63;;
27424;SDS011;15244;49.088;11.886;2023-05-01T14:49:30;5.43;;;5.03;;
27424;SDS011;15244;49.088;11.886;2023-05-01T14:54:43;5.68;;;5.10;;
27424;SDS011;15244;49.088;11.886;2023-05-01T14:59:47;5.35;;;4.95;;
27424;SDS011;15244;49.088;11.886;2023-05-01T15:04:48;5.40;;;5.00;;
27424;SDS011;15244;49.088;11.886;2023-05-01T15:09:50;6.25;;;5.85;;
27424;SDS011;15244;49.088;11.886;2023-05-01T15:14:52;6.90;;;5.38;;
27424;SDS011;15244;49.088;11.886;2023-05-01T15:19:54;5.65;;;5.15;;
27424;SDS011;15244;49.088;11.886;2023-05-01T15:24:56;7.15;;;5.50;;
27424;SDS011;15244;49.088;11.886;2023-05-01T15:29:58;6.55;;;6.05;;
27424;SDS011;15244;49.088;11.886;2023-05-01T15:34:59;5.63;;;5.20;;
27424;SDS011;15244;49.088;11.886;2023-05-01T15:40:01;6.22;;;5.68;;
27424;SDS011;15244;49.088;11.886;2023-05-01T15:45:04;6.15;;;5.65;;
27424;SDS011;15244;49.088;11.886;2023-05-01T15:50:08;5.90;;;5.43;;
27424;SDS011;15244;49.088;11.886;2023-05-01T15:55:14;6.05;;;5.60;;
27424;SDS011;15244;49.088;11.886;2023-05-01T16:00:16;5.93;;;5.43;;
27424;SDS011;15244;49.088;11.886;2023-05-01T16:05:19;6.32;;;5.72;;
27424;SDS011;15244;49.088;11.886;2023-05-01T16:10:24;6.25;;;5.65;;
27424;SDS011;15244;49.088;11.886;2023-05-01T16:15:26;4.97;;;4.57;;
27424;SDS011;15244;49.088;11.886;2023-05-01T16:20:29;5.68;;;5.28;;
27424;SDS011;15244;49.088;11.886;2023-05-01T16:25:42;5.95;;;5.45;;
27424;SDS011;15244;49.088;11.886;2023-05-01T16:30:43;6.20;;;5.80;;
27424;SDS011;15244;49.088;11.886;2023-05-01T16:35:48;7.75;;;6.95;;
27424;SDS011;15244;49.088;11.886;2023-05-01T16:40:53;8.30;;;7.47;;
27424;SDS011;15244;49.088;11.886;2023-05-01T16:45:56;7.13;;;6.43;;
27424;SDS011;15244;49.088;11.886;2023-05-01T16:50:58;6.60;;;6.00;;
27424;SDS011;15244;49.088;11.886;2023-05-01T16:56:00;6.28;;;5.80;;
27424;SDS011;15244;49.088;11.886;2023-05-01T17:01:02;5.90;;;5.50;;
27424;SDS011;15244;49.088;11.886;2023-05-01T17:06:03;6.95;;;6.45;;
27424;SDS011;15244;49.088;11.886;2023-05-01T17:11:05;6.32;;;5.93;;
27424;SDS011;15244;49.088;11.886;2023-05-01T17:16:07;6.35;;;5.85;;
27424;SDS011;15244;49.088;11.886;2023-05-01T17:21:09;6.38;;;5.88;;
27424;SDS011;15244;49.088;11.886;2023-05-01T17:26:12;5.85;;;5.45;;
27424;SDS011;15244;49.088;11.886;2023-05-01T17:31:16;6.28;;;5.78;;
27424;SDS011;15244;49.088;11.886;2023-05-01T17:36:21;6.43;;;5.47;;
27424;SDS011;15244;49.088;11.886;2023-05-01T17:41:24;5.28;;;4.82;;
27424;SDS011;15244;49.088;11.886;2023-05-01T17:46:26;5.80;;;5.40;;
27424;SDS011;15244;49.088;11.886;2023-05-01T17:51:28;5.88;;;5.38;;
27424;SDS011;15244;49.088;11.886;2023-05-01T17:56:30;6.15;;;5.65;;
27424;SDS011;15244;49.088;11.886;2023-05-01T18:01:32;6.20;;;5.80;;
27424;SDS011;15244;49.088;11.886;2023-05-01T18:06:34;5.80;;;5.40;;
27424;SDS011;15244;49.088;11.886;2023-05-01T18:11:37;6.55;;;5.57;;
27424;SDS011;15244;49.088;11.886;2023-05-01T18:16:39;6.15;;;5.65;;
27424;SDS011;15244;49.088;11.886;2023-05-01T18:21:42;6.30;;;5.90;;
27424;SDS011;15244;49.088;11.886;2023-05-01T18:26:44;6.15;;;5.70;;
27424;SDS011;15244;49.088;11.886;2023-05-01T18:31:45;6.13;;;5.63;;
27424;SDS011;15244;49.088;11.886;2023-05-01T18:36:48;5.57;;;5.18;;
27424;SDS011;15244;49.088;11.886;2023-05-01T18:41:52;6.00;;;5.50;;
27424;SDS011;15244;49.088;11.886;2023-05-01T18:46:54;5.80;;;5.40;;
27424;SDS011;15244;49.088;11.886;2023-05-01T18:51:56;5.88;;;5.38;;
27424;SDS011;15244;49.088;11.886;2023-05-01T18:56:58;5.70;;;5.40;;
27424;SDS011;15244;49.088;11.886;2023-05-01T19:02:00;6.78;;;6.18;;
27424;SDS011;15244;49.088;11.886;2023-05-01T19:07:03;6.97;;;6.38;;
27424;SDS011;15244;49.088;11.886;2023-05-01T19:12:06;6.88;;;6.38;;
27424;SDS011;15244;49.088;11.886;2023-05-01T19:17:12;7.38;;;6.75;;
27424;SDS011;15244;49.088;11.886;2023-05-01T19:22:14;7.38;;;6.78;;
27424;SDS011;15244;49.088;11.886;2023-05-01T19:27:17;6.85;;;6.35;;
27424;SDS011;15244;49.088;11.886;2023-05-01T19:32:18;7.68;;;6.93;;
27424;SDS011;15244;49.088;11.886;2023-05-01T19:37:20;7.72;;;7.13;;
27424;SDS011;15244;49.088;11.886;2023-05-01T19:42:22;8.23;;;7.53;;
27424;SDS011;15244;49.088;11.886;2023-05-01T19:47:24;7.28;;;6.60;;
27424;SDS011;15244;49.088;11.886;2023-05-01T19:52:26;7.50;;;7.00;;
27424;SDS011;15244;49.088;11.886;2023-05-01T19:57:27;8.52;;;7.93;;
27424;SDS011;15244;49.088;11.886;2023-05-01T20:02:29;8.90;;;8.23;;
27424;SDS011;15244;49.088;11.886;2023-05-01T20:07:31;9.60;;;8.80;;
27424;SDS011;15244;49.088;11.886;2023-05-01T20:12:34;9.73;;;8.90;;
27424;SDS011;15244;49.088;11.886;2023-05-01T20:17:36;9.27;;;8.45;;
27424;SDS011;15244;49.088;11.886;2023-05-01T20:22:38;8.65;;;7.95;;
27424;SDS011;15244;49.088;11.886;2023-05-01T20:27:39;9.23;;;8.45;;
27424;SDS011;15244;49.088;11.886;2023-05-01T20:32:42;9.05;;;8.20;;
27424;SDS011;15244;49.088;11.886;2023-05-01T20:37:44;9.20;;;8.38;;
27424;SDS011;15244;49.088;11.886;2023-05-01T20:42:46;8.27;;;7.43;;
27424;SDS011;15244;49.088;11.886;2023-05-01T20:47:48;8.88;;;8.07;;
27424;SDS011;15244;49.088;11.886;2023-05-01T20:52:49;10.18;;;9.23;;
27424;SDS011;15244;49.088;11.886;2023-05-01T20:57:51;9.45;;;8.70;;
27424;SDS011;15244;49.088;11.886;2023-05-01T21:02:53;8.80;;;8.00;;
27424;SDS011;15244;49.088;11.886;2023-05-01T21:07:58;10.07;;;9.13;;
27424;SDS011;15244;49.088;11.886;2023-05-01T21:13:00;10.43;;;9.20;;
27424;SDS011;15244;49.088;11.886;2023-05-01T21:18:02;10.90;;;9.98;;
27424;SDS011;15244;49.088;11.886;2023-05-01T21:23:05;11.70;;;10.50;;
27424;SDS011;15244;49.088;11.886;2023-05-01T21:28:11;13.30;;;11.90;;
27424;SDS011;15244;49.088;11.886;2023-05-01T21:33:14;12.75;;;11.43;;
27424;SDS011;15244;49.088;11.886;2023-05-01T21:38:17;13.13;;;11.27;;
27424;SDS011;15244;49.088;11.886;2023-05-01T21:43:19;14.10;;;11.32;;
27424;SDS011;15244;49.088;11.886;2023-05-01T21:48:20;13.27;;;11.95;;
27424;SDS011;15244;49.088;11.886;2023-05-01T21:53:22;13.68;;;12.27;;
27424;SDS011;15244;49.088;11.886;2023-05-01T21:58:24;13.95;;;12.38;;
27424;SDS011;15244;49.088;11.886;2023-05-01T22:03:28;11.68;;;10.50;;
27424;SDS011;15244;49.088;11.886;2023-05-01T22:08:29;12.50;;;11.30;;
27424;SDS011;15244;49.088;11.886;2023-05-01T22:13:31;11.98;;;10.88;;
27424;SDS011;15244;49.088;11.886;2023-05-01T22:18:33;13.35;;;10.50;;
27424;SDS011;15244;49.088;11.886;2023-05-01T22:23:35;12.52;;;11.27;;
27424;SDS011;15244;49.088;11.886;2023-05-01T22:28:36;13.20;;;10.85;;
27424;SDS011;15244;49.088;11.886;2023-05-01T22:33:39;13.10;;;11.18;;
27424;SDS011;15244;49.088;11.886;2023-05-01T22:38:41;15.25;;;11.13;;
27424;SDS011;15244;49.088;11.886;2023-05-01T22:43:42;12.20;;;11.20;;
27424;SDS011;15244;49.088;11.886;2023-05-01T22:48:44;12.32;;;11.02;;
27424;SDS011;15244;49.088;11.886;2023-05-01T22:53:46;13.02;;;10.95;;
27424;SDS011;15244;49.088;11.886;2023-05-01T22:58:47;13.55;;;11.82;;
27424;SDS011;15244;49.088;11.886;2023-05-01T23:03:49;12.43;;;11.20;;
27424;SDS011;15244;49.088;11.886;2023-05-01T23:08:51;11.35;;;10.23;;
27424;SDS011;15244;49.088;11.886;2023-05-01T23:13:54;12.25;;;11.05;;
27424;SDS011;15244;49.088;11.886;2023-05-01T23:18:55;11.75;;;10.60;;
27424;SDS011;15244;49.088;11.886;2023-05-01T23:23:57;11.25;;;10.30;;
27424;SDS011;15244;49.088;11.886;2023-05-01T23:29:01;11.63;;;10.48;;
27424;SDS011;15244;49.088;11.886;2023-05-01T23:34:05;11.07;;;9.98;;
27424;SDS011;15244;49.088;11.886;2023-05-01T23:39:08;11.85;;;10.73;;
27424;SDS011;15244;49.088;11.886;2023-05-01T23:44:09;11.38;;;10.38;;
27424;SDS011;15244;49.088;11.886;2023-05-01T23:49:11;11.52;;;10.43;;
27424;SDS011;15244;49.088;11.886;2023-05-01T23:54:13;14.00;;;11.63;;
27424;SDS011;15244;49.088;11.886;2023-05-01T23:59:14;10.82;;;9.77;;
